sensor_id;sensor_type;location;lat;lon;timestamp;pressure;altitude;pressure_sealevel;temperature;humidity
56600;BME280;51832;48.152;11.530;2023-02-18T00:02:04;96356.91;;;13.74;66.18
56600;BME280;51832;48.152;11.530;2023-02-18T00:07:04;96360.97;;;14.13;64.47
56600;BME280;51832;48.152;11.530;2023-02-18T00:12:05;96342.28;;;13.71;65.95
56600;BME280;51832;48.152;11.530;2023-02-18T00:17:05;96336.06;;;14.02;65.14
56600;BME280;51832;48.152;11.530;2023-02-18T00:22:06;96335.41;;;13.88;65.59
56600;BME280;51832;48.152;11.530;2023-02-18T00:27:06;96325.81;;;14.24;64.79
56600;BME280;51832;48.152;11.530;2023-02-18T00:32:07;96322.38;;;14.35;63.90
56600;BME280;51832;48.152;11.530;2023-02-18T00:37:08;96337.13;;;13.95;65.26
56600;BME280;51832;48.152;11.530;2023-02-18T00:42:08;96324.34;;;14.10;64.47
56600;BME280;51832;48.152;11.530;2023-02-18T00:47:08;96312.47;;;14.01;65.49
56600;BME280;51832;48.152;11.530;2023-02-18T00:52:09;96316.13;;;14.00;65.28
56600;BME280;51832;48.152;11.530;2023-02-18T00:57:09;96319.50;;;13.70;66.36
56600;BME280;51832;48.152;11.530;2023-02-18T01:02:10;96318.41;;;13.96;65.82
56600;BME280;51832;48.152;11.530;2023-02-18T01:07:10;96317.44;;;13.72;66.62
56600;BME280;51832;48.152;11.530;2023-02-18T01:12:10;96309.47;;;13.79;66.64
56600;BME280;51832;48.152;11.530;2023-02-18T01:17:11;96329.31;;;13.45;68.20
56600;BME280;51832;48.152;11.530;2023-02-18T01:22:11;96299.53;;;13.93;66.59
56600;BME280;51832;48.152;11.530;2023-02-18T01:27:12;96304.03;;;13.31;68.54
56600;BME280;51832;48.152;11.530;2023-02-18T01:32:12;96306.72;;;13.49;68.34
56600;BME280;51832;48.152;11.530;2023-02-18T01:37:13;96291.28;;;13.82;66.99
56600;BME280;51832;48.152;11.530;2023-02-18T01:42:19;96292.47;;;14.05;66.38
56600;BME280;51832;48.152;11.530;2023-02-18T01:47:20;96303.41;;;14.08;66.17
56600;BME280;51832;48.152;11.530;2023-02-18T01:52:23;96301.81;;;13.89;66.95
56600;BME280;51832;48.152;11.530;2023-02-18T01:57:30;96299.03;;;13.66;68.07
56600;BME280;51832;48.152;11.530;2023-02-18T02:02:34;96288.56;;;13.71;68.26
56600;BME280;51832;48.152;11.530;2023-02-18T02:07:36;96297.41;;;13.65;68.86
56600;BME280;51832;48.152;11.530;2023-02-18T02:12:58;96285.19;;;13.82;68.37
56600;BME280;51832;48.152;11.530;2023-02-18T02:18:35;96284.47;;;13.57;69.32
56600;BME280;51832;48.152;11.530;2023-02-18T02:50:48;96268.44;;;13.33;70.89
56600;BME280;51832;48.152;11.530;2023-02-18T02:55:51;96253.41;;;13.52;70.43
56600;BME280;51832;48.152;11.530;2023-02-18T03:01:20;96249.66;;;13.78;69.53
56600;BME280;51832;48.152;11.530;2023-02-18T03:17:24;96240.19;;;14.00;69.31
56600;BME280;51832;48.152;11.530;2023-02-18T03:22:30;96246.94;;;13.48;71.12
56600;BME280;51832;48.152;11.530;2023-02-18T03:27:36;96265.22;;;13.49;71.16
56600;BME280;51832;48.152;11.530;2023-02-18T03:32:38;96242.03;;;13.51;70.85
56600;BME280;51832;48.152;11.530;2023-02-18T03:37:44;96244.53;;;13.65;70.46
56600;BME280;51832;48.152;11.530;2023-02-18T03:42:47;96235.78;;;13.64;70.49
56600;BME280;51832;48.152;11.530;2023-02-18T03:47:47;96234.47;;;13.37;71.08
56600;BME280;51832;48.152;11.530;2023-02-18T03:52:49;96247.00;;;13.23;71.28
56600;BME280;51832;48.152;11.530;2023-02-18T03:57:50;96233.19;;;13.58;70.37
56600;BME280;51832;48.152;11.530;2023-02-18T04:02:50;96249.91;;;12.90;72.53
56600;BME280;51832;48.152;11.530;2023-02-18T04:07:50;96239.94;;;13.17;71.93
56600;BME280;51832;48.152;11.530;2023-02-18T04:12:51;96232.09;;;13.29;71.23
56600;BME280;51832;48.152;11.530;2023-02-18T04:17:51;96229.25;;;13.97;69.17
56600;BME280;51832;48.152;11.530;2023-02-18T04:22:51;96244.53;;;13.65;70.26
56600;BME280;51832;48.152;11.530;2023-02-18T04:27:52;96227.19;;;13.50;70.77
56600;BME280;51832;48.152;11.530;2023-02-18T04:32:52;96245.25;;;13.35;71.09
56600;BME280;51832;48.152;11.530;2023-02-18T04:37:53;96231.06;;;13.66;70.09
56600;BME280;51832;48.152;11.530;2023-02-18T04:42:53;96232.59;;;13.56;70.61
56600;BME280;51832;48.152;11.530;2023-02-18T04:47:54;96226.81;;;13.47;71.02
56600;BME280;51832;48.152;11.530;2023-02-18T04:52:54;96240.69;;;13.24;71.49
56600;BME280;51832;48.152;11.530;2023-02-18T04:57:55;96251.59;;;13.28;71.29
56600;BME280;51832;48.152;11.530;2023-02-18T05:02:55;96252.22;;;13.05;71.89
56600;BME280;51832;48.152;11.530;2023-02-18T05:07:56;96254.75;;;13.18;71.58
56600;BME280;51832;48.152;11.530;2023-02-18T05:12:56;96243.56;;;13.59;69.69
56600;BME280;51832;48.152;11.530;2023-02-18T05:17:56;96233.91;;;13.28;70.20
56600;BME280;51832;48.152;11.530;2023-02-18T05:22:57;96230.75;;;13.20;70.81
56600;BME280;51832;48.152;11.530;2023-02-18T05:27:57;96225.97;;;13.28;70.50
56600;BME280;51832;48.152;11.530;2023-02-18T05:32:58;96231.59;;;13.38;69.90
56600;BME280;51832;48.152;11.530;2023-02-18T05:37:58;96229.47;;;13.04;70.96
56600;BME280;51832;48.152;11.530;2023-02-18T05:42:58;96213.44;;;13.42;70.56
56600;BME280;51832;48.152;11.530;2023-02-18T05:47:59;96227.13;;;13.14;69.72
56600;BME280;51832;48.152;11.530;2023-02-18T05:52:59;96237.16;;;13.05;70.29
56600;BME280;51832;48.152;11.530;2023-02-18T05:57:59;96217.94;;;12.98;70.37
56600;BME280;51832;48.152;11.530;2023-02-18T06:03:00;96207.84;;;12.89;70.62
56600;BME280;51832;48.152;11.530;2023-02-18T06:08:00;96216.16;;;13.35;68.64
56600;BME280;51832;48.152;11.530;2023-02-18T06:13:01;96215.56;;;13.15;69.27
56600;BME280;51832;48.152;11.530;2023-02-18T06:18:04;96231.19;;;13.16;68.97
56600;BME280;51832;48.152;11.530;2023-02-18T06:23:04;96238.78;;;13.06;69.49
56600;BME280;51832;48.152;11.530;2023-02-18T06:28:04;96245.25;;;13.10;69.00
56600;BME280;51832;48.152;11.530;2023-02-18T06:33:05;96249.25;;;13.20;68.46
56600;BME280;51832;48.152;11.530;2023-02-18T06:38:05;96252.16;;;13.11;68.96
56600;BME280;51832;48.152;11.530;2023-02-18T06:43:06;96252.13;;;12.93;69.16
56600;BME280;51832;48.152;11.530;2023-02-18T06:48:06;96248.66;;;13.18;68.16
56600;BME280;51832;48.152;11.530;2023-02-18T06:53:07;96253.03;;;13.05;68.62
56600;BME280;51832;48.152;11.530;2023-02-18T06:58:09;96218.59;;;12.94;68.48
56600;BME280;51832;48.152;11.530;2023-02-18T07:03:11;96225.28;;;12.96;68.49
56600;BME280;51832;48.152;11.530;2023-02-18T07:08:13;96219.75;;;13.59;66.09
56600;BME280;51832;48.152;11.530;2023-02-18T07:13:14;96237.69;;;13.14;67.63
56600;BME280;51832;48.152;11.530;2023-02-18T07:18:14;96240.44;;;13.01;67.93
56600;BME280;51832;48.152;11.530;2023-02-18T07:23:15;96221.66;;;13.34;66.80
56600;BME280;51832;48.152;11.530;2023-02-18T07:28:15;96231.81;;;13.12;67.35
56600;BME280;51832;48.152;11.530;2023-02-18T07:33:15;96263.41;;;13.00;67.51
56600;BME280;51832;48.152;11.530;2023-02-18T07:38:16;96238.28;;;12.98;67.64
56600;BME280;51832;48.152;11.530;2023-02-18T07:43:16;96245.47;;;13.52;65.55
56600;BME280;51832;48.152;11.530;2023-02-18T07:48:17;96225.31;;;13.14;67.24
56600;BME280;51832;48.152;11.530;2023-02-18T07:53:17;96225.25;;;13.39;66.35
56600;BME280;51832;48.152;11.530;2023-02-18T07:58:22;96235.72;;;13.52;66.17
56600;BME280;51832;48.152;11.530;2023-02-18T08:03:28;96208.47;;;13.34;66.86
56600;BME280;51832;48.152;11.530;2023-02-18T08:08:30;96244.22;;;13.36;66.49
56600;BME280;51832;48.152;11.530;2023-02-18T08:13:31;96178.78;;;13.50;66.33
56600;BME280;51832;48.152;11.530;2023-02-18T08:18:32;96207.56;;;13.40;66.25
56600;BME280;51832;48.152;11.530;2023-02-18T08:23:32;96206.69;;;13.46;66.37
56600;BME280;51832;48.152;11.530;2023-02-18T08:28:33;96188.19;;;13.28;66.65
56600;BME280;51832;48.152;11.530;2023-02-18T08:33:33;96182.03;;;13.34;66.11
56600;BME280;51832;48.152;11.530;2023-02-18T08:38:33;96192.50;;;13.40;66.06
56600;BME280;51832;48.152;11.530;2023-02-18T08:43:34;96182.38;;;13.56;65.81
56600;BME280;51832;48.152;11.530;2023-02-18T08:48:35;96154.41;;;13.30;66.88
56600;BME280;51832;48.152;11.530;2023-02-18T08:53:36;96173.75;;;13.05;68.16
56600;BME280;51832;48.152;11.530;2023-02-18T08:58:36;96184.84;;;13.69;65.75
56600;BME280;51832;48.152;11.530;2023-02-18T09:03:37;96174.03;;;13.22;67.52
56600;BME280;51832;48.152;11.530;2023-02-18T09:08:38;96187.25;;;12.97;67.99
56600;BME280;51832;48.152;11.530;2023-02-18T09:13:38;96155.97;;;13.67;65.79
56600;BME280;51832;48.152;11.530;2023-02-18T09:18:39;96192.88;;;13.26;66.60
56600;BME280;51832;48.152;11.530;2023-02-18T09:23:40;96189.19;;;13.63;65.52
56600;BME280;51832;48.152;11.530;2023-02-18T09:28:41;96174.97;;;13.28;66.62
56600;BME280;51832;48.152;11.530;2023-02-18T09:33:51;96161.91;;;13.81;65.04
56600;BME280;51832;48.152;11.530;2023-02-18T09:38:52;96173.47;;;13.68;65.26
56600;BME280;51832;48.152;11.530;2023-02-18T09:43:58;96160.19;;;13.57;65.08
56600;BME280;51832;48.152;11.530;2023-02-18T09:49:06;96146.75;;;13.58;65.13
56600;BME280;51832;48.152;11.530;2023-02-18T09:54:13;96130.44;;;13.91;64.04
56600;BME280;51832;48.152;11.530;2023-02-18T09:59:17;96129.03;;;14.30;62.45
56600;BME280;51832;48.152;11.530;2023-02-18T10:04:42;96146.75;;;13.88;63.35
56600;BME280;51832;48.152;11.530;2023-02-18T10:09:45;96161.41;;;14.02;62.99
56600;BME280;51832;48.152;11.530;2023-02-18T10:14:56;96108.13;;;14.75;61.04
56600;BME280;51832;48.152;11.530;2023-02-18T10:19:58;96090.38;;;14.87;60.41
56600;BME280;51832;48.152;11.530;2023-02-18T10:25:01;96111.69;;;14.57;61.19
56600;BME280;51832;48.152;11.530;2023-02-18T10:51:19;96065.72;;;14.87;59.12
56600;BME280;51832;48.152;11.530;2023-02-18T10:56:47;96015.13;;;15.28;57.73
56600;BME280;51832;48.152;11.530;2023-02-18T11:02:15;96043.72;;;14.86;58.77
56600;BME280;51832;48.152;11.530;2023-02-18T11:07:26;96009.81;;;15.28;57.32
56600;BME280;51832;48.152;11.530;2023-02-18T11:12:38;96056.44;;;15.13;57.72
56600;BME280;51832;48.152;11.530;2023-02-18T11:17:44;96014.34;;;15.56;56.31
56600;BME280;51832;48.152;11.530;2023-02-18T11:22:46;95985.00;;;15.63;56.63
56600;BME280;51832;48.152;11.530;2023-02-18T11:27:58;95982.25;;;16.25;55.05
56600;BME280;51832;48.152;11.530;2023-02-18T11:33:04;95973.97;;;16.43;54.24
56600;BME280;51832;48.152;11.530;2023-02-18T11:38:22;95980.03;;;16.77;53.23
56600;BME280;51832;48.152;11.530;2023-02-18T11:43:28;95991.97;;;16.36;53.62
56600;BME280;51832;48.152;11.530;2023-02-18T11:48:29;95994.63;;;16.19;53.39
56600;BME280;51832;48.152;11.530;2023-02-18T11:53:36;95973.78;;;16.28;52.32
56600;BME280;51832;48.152;11.530;2023-02-18T11:58:43;95966.53;;;16.62;51.12
56600;BME280;51832;48.152;11.530;2023-02-18T12:04:11;95976.06;;;16.03;51.97
56600;BME280;51832;48.152;11.530;2023-02-18T12:09:33;95961.06;;;16.30;51.81
56600;BME280;51832;48.152;11.530;2023-02-18T12:14:35;95984.97;;;16.68;50.92
56600;BME280;51832;48.152;11.530;2023-02-18T12:30:42;95908.72;;;16.69;50.93
56600;BME280;51832;48.152;11.530;2023-02-18T12:41:32;95909.50;;;16.26;52.13
56600;BME280;51832;48.152;11.530;2023-02-18T12:51:54;95906.28;;;16.89;51.55
56600;BME280;51832;48.152;11.530;2023-02-18T12:57:22;95905.41;;;17.05;50.55
56600;BME280;51832;48.152;11.530;2023-02-18T13:13:36;95898.84;;;17.45;49.58
56600;BME280;51832;48.152;11.530;2023-02-18T13:24:02;95892.50;;;17.19;49.48
56600;BME280;51832;48.152;11.530;2023-02-18T13:29:19;95886.66;;;16.47;51.49
56600;BME280;51832;48.152;11.530;2023-02-18T13:39:49;95900.97;;;16.46;51.19
56600;BME280;51832;48.152;11.530;2023-02-18T13:49:54;95950.28;;;16.37;51.01
56600;BME280;51832;48.152;11.530;2023-02-18T13:54:55;95888.59;;;16.13;50.95
56600;BME280;51832;48.152;11.530;2023-02-18T13:59:57;95896.84;;;16.33;50.62
56600;BME280;51832;48.152;11.530;2023-02-18T14:30:40;95868.81;;;15.82;50.92
56600;BME280;51832;48.152;11.530;2023-02-18T14:36:08;95887.38;;;15.98;50.24
56600;BME280;51832;48.152;11.530;2023-02-18T14:57:40;95881.34;;;15.19;53.38
56600;BME280;51832;48.152;11.530;2023-02-18T15:02:47;95878.16;;;16.06;51.12
56600;BME280;51832;48.152;11.530;2023-02-18T15:12:55;95869.13;;;15.35;52.88
56600;BME280;51832;48.152;11.530;2023-02-18T15:17:55;95874.84;;;16.16;50.88
56600;BME280;51832;48.152;11.530;2023-02-18T15:22:56;95924.38;;;15.55;51.92
56600;BME280;51832;48.152;11.530;2023-02-18T15:27:56;95880.22;;;15.49;51.66
56600;BME280;51832;48.152;11.530;2023-02-18T15:32:59;95874.84;;;15.77;50.99
56600;BME280;51832;48.152;11.530;2023-02-18T15:38:00;95894.41;;;15.71;51.15
56600;BME280;51832;48.152;11.530;2023-02-18T15:43:03;95905.84;;;15.26;51.69
56600;BME280;51832;48.152;11.530;2023-02-18T15:48:04;95873.25;;;15.76;50.05
56600;BME280;51832;48.152;11.530;2023-02-18T15:53:13;95919.09;;;15.55;50.52
56600;BME280;51832;48.152;11.530;2023-02-18T15:58:17;95917.81;;;15.12;51.63
56600;BME280;51832;48.152;11.530;2023-02-18T16:08:26;95904.06;;;15.32;51.81
56600;BME280;51832;48.152;11.530;2023-02-18T16:13:26;95898.72;;;15.27;52.29
56600;BME280;51832;48.152;11.530;2023-02-18T16:18:38;95901.66;;;15.14;52.60
56600;BME280;51832;48.152;11.530;2023-02-18T16:23:42;95930.66;;;14.92;53.60
56600;BME280;51832;48.152;11.530;2023-02-18T16:28:44;95906.97;;;14.57;54.49
56600;BME280;51832;48.152;11.530;2023-02-18T16:33:45;95891.94;;;15.19;53.21
56600;BME280;51832;48.152;11.530;2023-02-18T16:38:45;95886.16;;;14.77;54.44
56600;BME280;51832;48.152;11.530;2023-02-18T16:43:45;95897.09;;;14.81;54.69
56600;BME280;51832;48.152;11.530;2023-02-18T16:48:49;95892.25;;;14.78;55.24
56600;BME280;51832;48.152;11.530;2023-02-18T16:53:49;95916.03;;;14.73;55.17
56600;BME280;51832;48.152;11.530;2023-02-18T16:58:50;95921.59;;;14.60;55.63
56600;BME280;51832;48.152;11.530;2023-02-18T17:03:51;95917.28;;;14.99;54.55
56600;BME280;51832;48.152;11.530;2023-02-18T17:08:51;95895.06;;;14.71;55.05
56600;BME280;51832;48.152;11.530;2023-02-18T17:13:53;95912.88;;;15.04;54.11
56600;BME280;51832;48.152;11.530;2023-02-18T17:18:53;95909.50;;;14.52;55.62
56600;BME280;51832;48.152;11.530;2023-02-18T17:23:54;95920.56;;;14.49;55.47
56600;BME280;51832;48.152;11.530;2023-02-18T17:28:56;95969.28;;;14.24;55.71
56600;BME280;51832;48.152;11.530;2023-02-18T17:34:00;95925.84;;;14.37;55.08
56600;BME280;51832;48.152;11.530;2023-02-18T17:39:01;95932.34;;;14.30;54.64
56600;BME280;51832;48.152;11.530;2023-02-18T17:44:17;95927.31;;;14.68;53.35
56600;BME280;51832;48.152;11.530;2023-02-18T17:49:18;95939.78;;;14.56;53.80
56600;BME280;51832;48.152;11.530;2023-02-18T17:54:19;95944.53;;;14.42;54.00
56600;BME280;51832;48.152;11.530;2023-02-18T17:59:21;95985.50;;;14.51;53.74
56600;BME280;51832;48.152;11.530;2023-02-18T18:04:22;95934.75;;;14.83;53.32
56600;BME280;51832;48.152;11.530;2023-02-18T18:09:22;95956.25;;;14.58;53.75
56600;BME280;51832;48.152;11.530;2023-02-18T18:14:23;95949.16;;;14.47;54.13
56600;BME280;51832;48.152;11.530;2023-02-18T18:19:24;95963.06;;;14.42;54.57
56600;BME280;51832;48.152;11.530;2023-02-18T18:24:24;95954.09;;;14.20;55.00
56600;BME280;51832;48.152;11.530;2023-02-18T18:29:24;95946.97;;;14.44;54.60
56600;BME280;51832;48.152;11.530;2023-02-18T18:34:25;95956.13;;;14.53;54.49
56600;BME280;51832;48.152;11.530;2023-02-18T18:39:26;95948.94;;;14.77;53.64
56600;BME280;51832;48.152;11.530;2023-02-18T18:44:26;95936.34;;;14.55;54.25
56600;BME280;51832;48.152;11.530;2023-02-18T18:49:26;95940.41;;;14.11;55.09
56600;BME280;51832;48.152;11.530;2023-02-18T18:54:27;95933.03;;;14.25;55.13
56600;BME280;51832;48.152;11.530;2023-02-18T18:59:27;95935.41;;;14.38;54.61
56600;BME280;51832;48.152;11.530;2023-02-18T19:04:28;95922.78;;;14.29;55.04
56600;BME280;51832;48.152;11.530;2023-02-18T19:09:28;95945.59;;;14.18;54.96
56600;BME280;51832;48.152;11.530;2023-02-18T19:14:29;95926.91;;;14.36;54.27
56600;BME280;51832;48.152;11.530;2023-02-18T19:19:29;95924.66;;;14.68;53.54
56600;BME280;51832;48.152;11.530;2023-02-18T19:24:30;95932.22;;;14.48;54.08
56600;BME280;51832;48.152;11.530;2023-02-18T19:29:31;95947.41;;;14.29;54.26
56600;BME280;51832;48.152;11.530;2023-02-18T19:34:32;95954.53;;;14.29;53.89
56600;BME280;51832;48.152;11.530;2023-02-18T19:39:33;95972.88;;;14.07;54.66
56600;BME280;51832;48.152;11.530;2023-02-18T19:44:34;95950.63;;;14.43;53.42
56600;BME280;51832;48.152;11.530;2023-02-18T19:49:35;95954.19;;;14.60;52.95
56600;BME280;51832;48.152;11.530;2023-02-18T19:54:35;95971.81;;;14.31;53.48
56600;BME280;51832;48.152;11.530;2023-02-18T19:59:36;95985.03;;;14.31;53.60
56600;BME280;51832;48.152;11.530;2023-02-18T20:04:36;95993.00;;;14.43;53.19
56600;BME280;51832;48.152;11.530;2023-02-18T20:09:37;95992.88;;;14.14;53.76
56600;BME280;51832;48.152;11.530;2023-02-18T20:14:38;95988.72;;;14.53;52.90
56600;BME280;51832;48.152;11.530;2023-02-18T20:19:39;96020.50;;;14.53;52.79
56600;BME280;51832;48.152;11.530;2023-02-18T20:24:40;96004.84;;;14.40;53.42
56600;BME280;51832;48.152;11.530;2023-02-18T20:29:40;95993.19;;;14.65;52.39
56600;BME280;51832;48.152;11.530;2023-02-18T20:34:41;96005.16;;;14.09;53.99
56600;BME280;51832;48.152;11.530;2023-02-18T20:39:41;96010.00;;;14.23;53.49
56600;BME280;51832;48.152;11.530;2023-02-18T20:44:43;96007.38;;;14.12;54.14
56600;BME280;51832;48.152;11.530;2023-02-18T20:49:44;96026.78;;;13.94;54.22
56600;BME280;51832;48.152;11.530;2023-02-18T20:54:45;96009.31;;;14.28;53.57
56600;BME280;51832;48.152;11.530;2023-02-18T20:59:46;95996.91;;;14.17;53.37
56600;BME280;51832;48.152;11.530;2023-02-18T21:04:46;96001.38;;;14.28;52.97
56600;BME280;51832;48.152;11.530;2023-02-18T21:09:47;95984.69;;;14.51;52.37
56600;BME280;51832;48.152;11.530;2023-02-18T21:14:47;95981.69;;;14.24;52.69
56600;BME280;51832;48.152;11.530;2023-02-18T21:19:48;95998.16;;;14.26;52.94
56600;BME280;51832;48.152;11.530;2023-02-18T21:24:49;95993.69;;;14.15;53.19
56600;BME280;51832;48.152;11.530;2023-02-18T21:29:50;95985.97;;;14.60;52.13
56600;BME280;51832;48.152;11.530;2023-02-18T21:34:51;95987.78;;;14.36;52.98
56600;BME280;51832;48.152;11.530;2023-02-18T21:39:51;95997.34;;;14.02;53.95
56600;BME280;51832;48.152;11.530;2023-02-18T21:44:52;95997.63;;;14.47;52.95
56600;BME280;51832;48.152;11.530;2023-02-18T21:49:52;95985.72;;;14.27;53.60
56600;BME280;51832;48.152;11.530;2023-02-18T21:54:53;95979.63;;;14.14;54.20
56600;BME280;51832;48.152;11.530;2023-02-18T21:59:53;95986.00;;;14.77;52.24
56600;BME280;51832;48.152;11.530;2023-02-18T22:04:54;95987.22;;;14.57;52.56
56600;BME280;51832;48.152;11.530;2023-02-18T22:09:54;95987.00;;;14.01;54.39
56600;BME280;51832;48.152;11.530;2023-02-18T22:14:55;95977.09;;;14.08;54.28
56600;BME280;51832;48.152;11.530;2023-02-18T22:19:55;95997.00;;;14.22;54.19
56600;BME280;51832;48.152;11.530;2023-02-18T22:24:56;95985.03;;;14.08;54.37
56600;BME280;51832;48.152;11.530;2023-02-18T22:29:57;95997.56;;;13.66;55.74
56600;BME280;51832;48.152;11.530;2023-02-18T22:34:57;95987.44;;;13.98;54.65
56600;BME280;51832;48.152;11.530;2023-02-18T22:39:58;95979.97;;;13.95;54.91
56600;BME280;51832;48.152;11.530;2023-02-18T22:44:58;95991.72;;;13.87;55.07
56600;BME280;51832;48.152;11.530;2023-02-18T22:50:01;95998.38;;;13.66;55.50
56600;BME280;51832;48.152;11.530;2023-02-18T22:55:02;95982.00;;;13.69;55.59
56600;BME280;51832;48.152;11.530;2023-02-18T23:00:05;95996.03;;;13.58;56.04
56600;BME280;51832;48.152;11.530;2023-02-18T23:05:08;95991.94;;;13.85;55.23
56600;BME280;51832;48.152;11.530;2023-02-18T23:10:08;95975.47;;;13.83;55.31
56600;BME280;51832;48.152;11.530;2023-02-18T23:15:09;95960.88;;;13.81;55.33
56600;BME280;51832;48.152;11.530;2023-02-18T23:20:09;95964.44;;;13.98;55.05
56600;BME280;51832;48.152;11.530;2023-02-18T23:25:10;95983.78;;;13.34;56.94
56600;BME280;51832;48.152;11.530;2023-02-18T23:30:11;95989.16;;;13.27;57.61
56600;BME280;51832;48.152;11.530;2023-02-18T23:35:11;95951.66;;;13.60;56.52
56600;BME280;51832;48.152;11.530;2023-02-18T23:40:12;95969.56;;;13.46;57.31
56600;BME280;51832;48.152;11.530;2023-02-18T23:45:13;95952.59;;;13.66;57.02
56600;BME280;51832;48.152;11.530;2023-02-18T23:50:14;95945.78;;;13.58;57.27
56600;BME280;51832;48.152;11.530;2023-02-18T23:55:17;95932.78;;;13.57;57.78
